createdAt,value
2019-05-14T00:01:27.648Z,2.25
2019-05-14T00:03:57.983Z,2.22
2019-05-14T00:06:31.023Z,2.75
2019-05-14T00:09:01.731Z,2.70
2019-05-14T00:11:33.765Z,2.40
2019-05-14T00:14:04.406Z,2.50
2019-05-14T00:16:35.047Z,2.40
2019-05-14T00:19:05.628Z,2.62
2019-05-14T00:21:36.175Z,2.20
2019-05-14T00:24:06.658Z,2.58
2019-05-14T00:26:38.611Z,2.50
2019-05-14T00:29:11.401Z,2.65
2019-05-14T00:31:42.419Z,3.00
2019-05-14T00:34:13.259Z,2.33
2019-05-14T00:36:43.795Z,2.60
2019-05-14T00:39:14.659Z,2.92
2019-05-14T00:41:45.123Z,2.90
2019-05-14T00:44:15.542Z,2.75
2019-05-14T00:46:46.082Z,3.27
2019-05-14T00:49:18.044Z,3.27
2019-05-14T00:51:48.411Z,3.50
2019-05-14T00:54:21.548Z,3.25
2019-05-14T00:56:52.300Z,3.15
2019-05-14T00:59:22.807Z,2.85
2019-05-14T01:01:54.066Z,2.83
2019-05-14T01:04:24.405Z,2.85
2019-05-14T01:06:55.276Z,2.40
2019-05-14T01:09:25.738Z,2.60
2019-05-14T01:11:56.173Z,2.90
2019-05-14T01:14:26.627Z,2.65
2019-05-14T01:16:57.227Z,3.00
2019-05-14T01:19:27.689Z,2.60
2019-05-14T01:21:58.431Z,2.75
2019-05-14T01:24:28.993Z,2.87
2019-05-14T01:27:01.455Z,2.45
2019-05-14T01:29:32.371Z,2.80
2019-05-14T01:32:02.823Z,2.92
2019-05-14T01:34:33.232Z,2.98
2019-05-14T01:37:03.792Z,2.75
2019-05-14T01:39:35.356Z,2.80
2019-05-14T01:42:05.896Z,2.90
2019-05-14T01:44:36.496Z,3.00
2019-05-14T01:47:06.996Z,2.65
2019-05-14T01:49:37.582Z,2.90
2019-05-14T01:52:11.256Z,2.47
2019-05-14T01:54:42.708Z,2.72
2019-05-14T01:57:13.556Z,2.90
2019-05-14T01:59:44.035Z,2.90
2019-05-14T02:02:14.787Z,3.80
2019-05-14T02:04:45.304Z,2.90
2019-05-14T02:07:16.245Z,2.87
2019-05-14T02:09:47.120Z,2.92
2019-05-14T02:12:17.654Z,3.40
2019-05-14T02:14:48.252Z,3.70
2019-05-14T02:17:18.780Z,3.40
2019-05-14T02:19:51.310Z,3.17
2019-05-14T02:22:21.771Z,2.90
2019-05-14T02:24:53.124Z,3.12
2019-05-14T02:27:23.850Z,3.20
2019-05-14T02:29:54.395Z,3.40
2019-05-14T02:32:24.864Z,3.62
2019-05-14T02:34:55.285Z,3.40
2019-05-14T02:37:25.832Z,3.37
2019-05-14T02:39:59.474Z,3.17
2019-05-14T02:42:29.137Z,3.10
2019-05-14T02:45:00.825Z,3.60
2019-05-14T02:47:31.638Z,3.60
2019-05-14T02:50:02.270Z,3.30
2019-05-14T02:52:39.894Z,3.40
2019-05-14T02:55:09.551Z,3.20
2019-05-14T02:57:40.285Z,3.00
2019-05-14T03:00:11.252Z,3.25
2019-05-14T03:02:41.784Z,3.40
2019-05-14T03:05:12.543Z,3.20
2019-05-14T03:07:45.008Z,3.98
2019-05-14T03:10:15.701Z,3.37
2019-05-14T03:12:49.218Z,3.42
2019-05-14T03:15:20.014Z,3.42
2019-05-14T03:17:51.049Z,3.20
2019-05-14T03:20:22.783Z,3.40
2019-05-14T03:23:03.055Z,3.00
2019-05-14T03:25:25.740Z,3.08
2019-05-14T03:27:59.595Z,3.12
2019-05-14T03:30:32.150Z,3.60
2019-05-14T03:33:03.377Z,3.40
2019-05-14T03:35:42.015Z,3.40
2019-05-14T03:38:09.482Z,3.02
2019-05-14T03:40:40.222Z,3.25
2019-05-14T03:43:11.065Z,3.30
2019-05-14T03:45:41.923Z,3.25
2019-05-14T03:48:13.459Z,3.10
2019-05-14T03:50:44.037Z,3.30
2019-05-14T03:53:14.976Z,2.90
2019-05-14T03:55:45.744Z,3.50
2019-05-14T03:58:20.697Z,3.33
2019-05-14T04:00:51.950Z,3.25
2019-05-14T04:03:22.993Z,3.22
2019-05-14T04:05:54.312Z,3.35
2019-05-14T04:08:29.373Z,3.50
2019-05-14T04:11:00.744Z,3.17
2019-05-14T04:13:32.372Z,3.62
2019-05-14T04:16:03.240Z,3.30
2019-05-14T04:18:40.429Z,3.35
2019-05-14T04:21:12.720Z,3.00
2019-05-14T04:23:51.078Z,3.85
2019-05-14T04:26:21.870Z,4.05
2019-05-14T04:28:54.427Z,4.60
2019-05-14T04:31:29.669Z,3.60
2019-05-14T04:33:59.401Z,3.70
2019-05-14T04:36:30.408Z,3.40
2019-05-14T04:39:01.248Z,3.62
2019-05-14T04:41:32.826Z,3.30
2019-05-14T04:44:03.377Z,3.30
2019-05-14T04:46:34.019Z,2.98
2019-05-14T04:49:04.697Z,3.20
2019-05-14T04:51:35.472Z,3.00
2019-05-14T04:54:09.423Z,3.05
2019-05-14T04:56:40.172Z,3.35
2019-05-14T04:59:13.325Z,3.58
2019-05-14T05:01:43.805Z,3.55
2019-05-14T05:04:14.374Z,3.40
2019-05-14T05:06:44.890Z,3.67
2019-05-14T05:09:15.725Z,4.05
2019-05-14T05:11:46.195Z,3.17
2019-05-14T05:14:19.152Z,3.42
2019-05-14T05:16:49.154Z,3.40
2019-05-14T05:19:19.840Z,3.62
2019-05-14T05:21:51.578Z,3.80
2019-05-14T05:24:22.318Z,3.50
2019-05-14T05:26:52.832Z,3.20
2019-05-14T05:29:23.315Z,3.30
2019-05-14T05:31:53.902Z,3.30
2019-05-14T05:34:24.514Z,3.00
2019-05-14T05:36:55.071Z,3.08
2019-05-14T05:39:25.498Z,3.12
2019-05-14T05:41:58.350Z,3.45
2019-05-14T05:44:28.827Z,3.55
2019-05-14T05:46:59.877Z,3.50
2019-05-14T05:49:30.807Z,3.35
2019-05-14T05:52:01.269Z,3.22
2019-05-14T05:54:32.467Z,2.72
2019-05-14T05:57:03.482Z,2.85
2019-05-14T05:59:34.048Z,2.77
2019-05-14T06:02:04.939Z,2.70
2019-05-14T06:04:35.635Z,2.50
2019-05-14T06:07:08.687Z,2.20
2019-05-14T06:09:39.817Z,2.37
2019-05-14T06:12:10.681Z,2.00
2019-05-14T06:14:41.236Z,2.40
2019-05-14T06:17:11.795Z,2.05
2019-05-14T06:19:42.901Z,2.47
2019-05-14T06:22:13.955Z,1.57
2019-05-14T06:24:44.445Z,1.92
2019-05-14T06:27:17.996Z,1.98
2019-05-14T06:29:48.963Z,1.85
2019-05-14T06:32:19.791Z,1.70
2019-05-14T06:34:50.220Z,2.27
2019-05-14T06:37:21.587Z,1.62
2019-05-14T06:39:52.027Z,1.60
2019-05-14T06:42:22.584Z,1.52
2019-05-14T06:44:53.108Z,1.65
2019-05-14T06:47:23.691Z,1.65
2019-05-14T06:49:54.274Z,1.95
2019-05-14T06:52:25.087Z,1.75
2019-05-14T06:54:58.113Z,1.47
2019-05-14T06:57:29.475Z,1.80
2019-05-14T07:00:00.020Z,1.40
2019-05-14T07:02:30.804Z,1.50
2019-05-14T07:05:01.501Z,1.50
2019-05-14T07:07:31.968Z,1.30
2019-05-14T07:10:02.318Z,1.40
2019-05-14T07:12:32.864Z,1.45
2019-05-14T07:15:03.308Z,1.42
2019-05-14T07:17:35.043Z,1.50
2019-05-14T07:20:08.866Z,1.82
2019-05-14T07:22:40.865Z,1.82
2019-05-14T07:25:11.465Z,1.47
2019-05-14T07:27:42.875Z,1.70
2019-05-14T07:30:13.775Z,1.77
2019-05-14T07:32:44.644Z,1.80
2019-05-14T07:35:18.139Z,1.42
2019-05-14T07:37:48.877Z,2.05
2019-05-14T07:40:19.604Z,1.92
2019-05-14T07:42:50.143Z,1.98
2019-05-14T07:45:20.752Z,1.82
2019-05-14T07:47:51.265Z,2.17
2019-05-14T07:50:22.283Z,1.70
2019-05-14T07:52:52.971Z,1.67
2019-05-14T07:55:23.416Z,1.80
2019-05-14T07:57:54.987Z,2.15
2019-05-14T08:00:28.398Z,1.95
2019-05-14T08:02:59.728Z,2.10
2019-05-14T08:05:30.278Z,1.47
2019-05-14T08:08:00.916Z,1.67
2019-05-14T08:10:31.341Z,2.08
2019-05-14T08:13:01.951Z,1.82
2019-05-14T08:15:32.565Z,2.00
2019-05-14T08:18:04.131Z,1.80
2019-05-14T08:20:34.688Z,1.87
2019-05-14T08:23:05.183Z,2.02
2019-05-14T08:25:41.710Z,1.98
2019-05-14T08:28:12.142Z,2.10
2019-05-14T08:30:43.012Z,1.80
2019-05-14T08:33:13.743Z,2.05
2019-05-14T08:35:44.328Z,2.05
2019-05-14T08:38:15.707Z,1.65
2019-05-14T08:40:48.652Z,2.00
2019-05-14T08:43:18.812Z,2.22
2019-05-14T08:45:49.618Z,2.17
2019-05-14T08:48:20.057Z,2.10
2019-05-14T08:50:50.580Z,2.10
2019-05-14T08:53:22.072Z,2.30
2019-05-14T08:55:52.570Z,2.40
2019-05-14T08:58:23.114Z,2.25
2019-05-14T09:00:53.697Z,1.98
2019-05-14T09:03:24.500Z,2.10
2019-05-14T09:05:59.969Z,2.12
2019-05-14T09:08:28.597Z,2.00
2019-05-14T09:10:59.287Z,2.20
2019-05-14T09:13:30.019Z,2.17
2019-05-14T09:16:00.680Z,2.20
2019-05-14T09:18:31.121Z,2.60
2019-05-14T09:21:01.687Z,2.10
2019-05-14T09:23:33.048Z,2.37
2019-05-14T09:26:03.660Z,2.35
2019-05-14T09:28:34.252Z,2.40
2019-05-14T09:31:08.270Z,2.20
2019-05-14T09:33:39.308Z,2.47
2019-05-14T09:36:19.453Z,2.70
2019-05-14T09:38:43.310Z,2.40
2019-05-14T09:41:15.416Z,2.45
2019-05-14T09:43:48.411Z,2.50
2019-05-14T09:46:18.862Z,2.35
2019-05-14T09:48:49.435Z,2.40
2019-05-14T09:51:20.656Z,2.50
2019-05-14T09:53:51.072Z,2.42
2019-05-14T09:56:21.721Z,2.15
2019-05-14T09:58:52.275Z,2.75
2019-05-14T10:01:22.831Z,2.40
2019-05-14T10:03:54.747Z,2.37
2019-05-14T10:06:25.243Z,2.30
2019-05-14T10:08:55.788Z,2.30
2019-05-14T10:11:28.626Z,2.33
2019-05-14T10:13:59.850Z,2.50
2019-05-14T10:16:30.760Z,2.47
2019-05-14T10:19:01.288Z,2.47
2019-05-14T10:21:31.799Z,2.50
2019-05-14T10:24:03.810Z,2.30
2019-05-14T10:26:34.408Z,2.22
2019-05-14T10:29:08.460Z,2.65
2019-05-14T10:31:40.848Z,2.17
2019-05-14T10:34:12.215Z,2.92
2019-05-14T10:36:42.674Z,2.85
2019-05-14T10:39:13.147Z,2.70
2019-05-14T10:41:43.714Z,2.90
2019-05-14T10:44:14.232Z,2.50
2019-05-14T10:46:45.748Z,2.70
2019-05-14T10:49:22.610Z,2.95
2019-05-14T10:51:48.388Z,2.62
2019-05-14T10:54:25.211Z,2.95
2019-05-14T10:56:52.375Z,3.35
2019-05-14T10:59:22.931Z,2.77
2019-05-14T11:01:53.471Z,3.08
2019-05-14T11:04:24.411Z,3.00
2019-05-14T11:06:54.980Z,2.87
2019-05-14T11:09:25.544Z,2.83
2019-05-14T11:11:58.205Z,2.60
2019-05-14T11:14:31.775Z,2.72
2019-05-14T11:17:00.623Z,3.08
2019-05-14T11:19:31.295Z,2.50
2019-05-14T11:22:01.747Z,2.85
2019-05-14T11:24:33.191Z,2.52
2019-05-14T11:27:03.809Z,2.40
2019-05-14T11:29:34.336Z,2.67
2019-05-14T11:32:04.888Z,2.72
2019-05-14T11:34:35.453Z,2.80
2019-05-14T11:37:08.350Z,2.70
2019-05-14T11:39:38.323Z,2.62
2019-05-14T11:42:11.731Z,2.70
2019-05-14T11:44:42.483Z,2.70
2019-05-14T11:47:13.019Z,2.87
2019-05-14T11:49:43.517Z,2.33
2019-05-14T11:52:13.943Z,3.00
2019-05-14T11:54:44.410Z,2.90
2019-05-14T11:57:15.744Z,2.70
2019-05-14T11:59:46.383Z,2.92
2019-05-14T12:02:18.933Z,2.77
2019-05-14T12:04:50.683Z,2.40
2019-05-14T12:07:21.268Z,2.50
2019-05-14T12:09:52.712Z,2.58
2019-05-14T12:12:23.224Z,3.25
2019-05-14T12:14:54.152Z,2.80
2019-05-14T12:17:24.532Z,3.10
2019-05-14T12:19:55.151Z,2.40
2019-05-14T12:22:28.454Z,2.52
2019-05-14T12:24:58.544Z,2.62
2019-05-14T12:27:29.120Z,2.65
2019-05-14T12:30:00.036Z,2.60
2019-05-14T12:32:30.641Z,2.50
2019-05-14T12:35:01.219Z,2.83
2019-05-14T12:37:31.795Z,2.60
2019-05-14T12:40:02.282Z,2.70
2019-05-14T12:42:32.679Z,2.90
2019-05-14T12:45:03.311Z,2.87
2019-05-14T12:47:34.067Z,2.70
2019-05-14T12:50:05.784Z,2.85
2019-05-14T12:52:38.688Z,2.77
2019-05-14T12:55:09.635Z,2.83
2019-05-14T12:57:40.306Z,2.70
2019-05-14T13:00:13.313Z,2.92
2019-05-14T13:02:43.831Z,2.72
2019-05-14T13:05:18.174Z,2.72
2019-05-14T13:07:51.168Z,2.90
2019-05-14T13:10:20.529Z,2.62
2019-05-14T13:12:54.735Z,2.92
2019-05-14T13:15:25.258Z,2.77
2019-05-14T13:17:55.703Z,2.70
2019-05-14T13:20:28.937Z,3.30
2019-05-14T13:22:58.936Z,2.70
2019-05-14T13:25:30.358Z,2.33
2019-05-14T13:28:01.067Z,2.52
2019-05-14T13:30:31.856Z,3.15
2019-05-14T13:33:02.495Z,2.80
2019-05-14T13:35:35.540Z,2.50
2019-05-14T13:38:13.970Z,2.67
2019-05-14T13:40:39.711Z,2.60
2019-05-14T13:43:14.223Z,2.58
2019-05-14T13:45:43.300Z,2.60
2019-05-14T13:48:13.925Z,2.80
2019-05-14T13:50:44.484Z,2.45
2019-05-14T13:53:15.137Z,2.80
2019-05-14T13:55:50.576Z,3.20
2019-05-14T13:58:20.947Z,2.83
2019-05-14T14:00:52.191Z,3.10
2019-05-14T14:03:23.055Z,2.85
2019-05-14T14:05:53.976Z,3.00
2019-05-14T14:08:31.397Z,2.85
2019-05-14T14:11:03.792Z,3.15
2019-05-14T14:13:34.301Z,2.70
2019-05-14T14:16:05.158Z,2.77
2019-05-14T14:18:39.804Z,2.87
2019-05-14T14:21:19.355Z,3.30
2019-05-14T14:23:55.565Z,2.85
2019-05-14T14:26:26.087Z,2.67
2019-05-14T14:28:59.725Z,3.00
2019-05-14T14:31:29.129Z,3.05
2019-05-14T14:33:59.764Z,2.85
2019-05-14T14:36:30.355Z,3.12
2019-05-14T14:39:01.890Z,2.58
2019-05-14T14:41:34.000Z,2.72
2019-05-14T14:44:04.794Z,2.83
2019-05-14T14:46:35.282Z,2.90
2019-05-14T14:49:05.915Z,2.42
2019-05-14T14:51:43.969Z,3.08
2019-05-14T14:54:14.632Z,2.72
2019-05-14T14:56:42.395Z,4.33
2019-05-14T14:59:13.848Z,2.60
2019-05-14T15:01:49.834Z,2.60
2019-05-14T15:04:24.847Z,3.22
2019-05-14T15:09:33.061Z,2.47
2019-05-14T15:12:03.566Z,3.02
2019-05-14T15:14:34.119Z,3.00
2019-05-14T15:17:04.647Z,3.00
2019-05-14T15:19:39.305Z,2.95
2019-05-14T15:22:08.858Z,3.30
2019-05-14T15:24:39.616Z,2.72
2019-05-14T15:27:14.999Z,3.27
2019-05-14T15:29:43.172Z,2.37
2019-05-14T15:32:13.975Z,2.52
2019-05-14T15:34:44.729Z,2.70
2019-05-14T15:37:15.376Z,3.15
2019-05-14T15:39:45.759Z,2.50
2019-05-14T15:42:19.052Z,2.80
2019-05-14T15:44:55.827Z,2.77
2019-05-14T15:47:21.034Z,2.95
2019-05-14T15:49:51.728Z,2.75
2019-05-14T15:52:22.348Z,2.75
2019-05-14T15:54:54.495Z,3.25
2019-05-14T15:57:25.008Z,2.92
2019-05-14T15:59:55.459Z,2.85
2019-05-14T16:02:29.219Z,2.87
2019-05-14T16:04:59.105Z,2.62
2019-05-14T16:10:08.564Z,3.87
2019-05-14T16:12:40.152Z,3.12
2019-05-14T16:15:11.308Z,3.05
2019-05-14T16:17:50.409Z,3.17
2019-05-14T16:20:18.607Z,2.72
2019-05-14T16:22:48.260Z,3.10
2019-05-14T16:25:19.118Z,3.42
2019-05-14T16:27:49.859Z,3.17
2019-05-14T16:30:20.516Z,3.42
2019-05-14T16:32:51.091Z,3.33
2019-05-14T16:35:21.637Z,3.00
2019-05-14T16:37:53.296Z,3.87
2019-05-14T16:40:23.788Z,2.83
2019-05-14T16:42:55.023Z,3.25
2019-05-14T16:45:25.640Z,3.25
2019-05-14T16:47:56.215Z,2.85
2019-05-14T16:50:28.657Z,3.25
2019-05-14T16:52:59.137Z,3.17
2019-05-14T16:55:30.971Z,2.87
2019-05-14T16:58:01.588Z,2.80
2019-05-14T17:00:34.724Z,2.70
2019-05-14T17:03:10.356Z,2.90
2019-05-14T17:05:41.762Z,3.42
2019-05-14T17:08:13.397Z,3.12
2019-05-14T17:10:48.191Z,3.15
2019-05-14T17:13:18.883Z,3.45
2019-05-14T17:15:49.381Z,3.40
2019-05-14T17:18:19.810Z,3.42
2019-05-14T17:20:51.984Z,3.52
2019-05-14T17:23:22.546Z,3.55
2019-05-14T17:25:53.066Z,3.37
2019-05-14T17:28:23.528Z,3.85
2019-05-14T17:30:54.218Z,3.47
2019-05-14T17:33:24.755Z,2.98
2019-05-14T17:35:55.222Z,3.02
2019-05-14T17:41:02.565Z,3.33
2019-05-14T17:43:33.436Z,2.67
2019-05-14T17:46:04.305Z,3.17
2019-05-14T17:48:38.941Z,2.98
2019-05-14T17:51:09.524Z,3.08
2019-05-14T17:53:40.287Z,3.00
2019-05-14T17:56:10.879Z,2.85
2019-05-14T17:58:41.408Z,2.95
2019-05-14T18:01:15.216Z,3.10
2019-05-14T18:03:45.780Z,2.50
2019-05-14T18:06:18.694Z,3.00
2019-05-14T18:08:49.050Z,3.30
2019-05-14T18:11:28.213Z,2.75
2019-05-14T18:13:58.905Z,2.95
2019-05-14T18:16:37.957Z,3.15
2019-05-14T18:19:08.771Z,2.83
2019-05-14T18:21:39.586Z,3.15
2019-05-14T18:24:10.466Z,2.80
2019-05-14T18:26:40.961Z,2.70
2019-05-14T18:29:11.585Z,2.77
2019-05-14T18:31:44.798Z,2.60
2019-05-14T18:34:14.590Z,3.00
2019-05-14T18:36:45.077Z,2.60
2019-05-14T18:39:18.346Z,2.87
2019-05-14T18:41:49.827Z,3.08
2019-05-14T18:44:19.936Z,2.80
2019-05-14T18:46:50.608Z,2.72
2019-05-14T18:49:21.249Z,2.70
2019-05-14T18:51:51.941Z,3.05
2019-05-14T18:54:22.406Z,3.00
2019-05-14T18:56:52.960Z,3.37
2019-05-14T18:59:24.132Z,3.58
2019-05-14T19:01:54.710Z,3.00
2019-05-14T19:04:25.226Z,3.60
2019-05-14T19:06:55.859Z,3.60
2019-05-14T19:09:29.218Z,3.08
2019-05-14T19:11:59.950Z,3.20
2019-05-14T19:14:31.540Z,3.30
2019-05-14T19:17:02.164Z,3.12
2019-05-14T19:19:32.595Z,3.27
2019-05-14T19:22:10.349Z,2.92
2019-05-14T19:24:40.777Z,3.02
2019-05-14T19:29:48.432Z,2.90
2019-05-14T19:32:19.258Z,2.60
2019-05-14T19:34:49.798Z,2.98
2019-05-14T19:37:20.273Z,3.00
2019-05-14T19:39:50.792Z,2.70
2019-05-14T19:42:21.332Z,2.98
2019-05-14T19:44:51.842Z,3.10
2019-05-14T19:47:22.451Z,2.60
2019-05-14T19:49:53.100Z,3.10
2019-05-14T19:52:23.643Z,2.95
2019-05-14T19:54:54.224Z,2.65
2019-05-14T19:57:25.858Z,2.50
2019-05-14T19:59:56.507Z,2.75
2019-05-14T20:02:28.623Z,3.15
2019-05-14T20:04:59.359Z,3.27
2019-05-14T20:07:29.917Z,3.20
2019-05-14T20:10:04.788Z,2.70
2019-05-14T20:12:43.120Z,2.58
2019-05-14T20:15:17.137Z,2.95
2019-05-14T20:17:49.086Z,3.17
2019-05-14T20:20:19.880Z,3.00
2019-05-14T20:22:50.268Z,2.87
2019-05-14T20:25:20.735Z,2.80
2019-05-14T20:27:51.356Z,3.08
2019-05-14T20:30:21.984Z,2.90
2019-05-14T20:32:52.445Z,2.60
2019-05-14T20:35:31.726Z,2.80
2019-05-14T20:37:55.309Z,3.12
2019-05-14T20:40:27.932Z,2.83
2019-05-14T20:42:59.008Z,3.10
2019-05-14T20:45:29.808Z,3.33
2019-05-14T20:48:00.318Z,3.20
2019-05-14T20:50:30.824Z,3.12
2019-05-14T20:53:01.290Z,3.40
2019-05-14T20:55:31.773Z,3.00
2019-05-14T20:58:02.227Z,3.20
2019-05-14T21:00:32.828Z,2.70
2019-05-14T21:03:03.421Z,3.12
2019-05-14T21:05:35.088Z,3.25
2019-05-14T21:08:05.646Z,3.70
2019-05-14T21:10:38.491Z,3.33
2019-05-14T21:13:09.094Z,3.45
2019-05-14T21:15:39.632Z,3.25
2019-05-14T21:18:10.202Z,3.08
2019-05-14T21:20:40.791Z,3.05
2019-05-14T21:23:11.398Z,3.50
2019-05-14T21:25:42.076Z,3.45
2019-05-14T21:28:12.593Z,3.52
2019-05-14T21:30:43.317Z,3.62
2019-05-14T21:33:13.813Z,3.05
2019-05-14T21:35:44.457Z,3.12
2019-05-14T21:38:15.570Z,3.52
2019-05-14T21:40:46.330Z,3.50
2019-05-14T21:43:18.627Z,3.62
2019-05-14T21:45:49.246Z,3.12
2019-05-14T21:48:20.103Z,3.77
2019-05-14T21:50:50.760Z,3.20
2019-05-14T21:53:21.388Z,3.12
2019-05-14T21:55:51.977Z,3.40
2019-05-14T21:58:22.588Z,3.10
2019-05-14T22:00:55.530Z,3.27
2019-05-14T22:03:28.368Z,3.30
2019-05-14T22:05:59.337Z,3.35
2019-05-14T22:08:30.384Z,3.55
2019-05-14T22:11:02.534Z,3.52
2019-05-14T22:13:38.102Z,3.15
2019-05-14T22:16:08.572Z,3.60
2019-05-14T22:18:39.121Z,3.10
2019-05-14T22:21:09.738Z,3.70
2019-05-14T22:23:40.335Z,3.45
2019-05-14T22:26:11.047Z,3.77
2019-05-14T22:28:41.535Z,3.22
2019-05-14T22:31:12.138Z,3.00
2019-05-14T22:33:42.837Z,3.15
2019-05-14T22:36:13.345Z,3.25
2019-05-14T22:38:43.845Z,3.10
2019-05-14T22:41:14.395Z,3.20
2019-05-14T22:43:45.026Z,2.90
2019-05-14T22:46:19.055Z,2.72
2019-05-14T22:48:51.694Z,3.47
2019-05-14T22:51:21.732Z,3.50
2019-05-14T22:53:52.258Z,3.72
2019-05-14T22:56:22.810Z,3.83
2019-05-14T22:58:53.433Z,3.60
2019-05-14T23:01:24.005Z,3.58
2019-05-14T23:03:54.566Z,3.45
2019-05-14T23:06:25.197Z,3.40
2019-05-14T23:08:58.007Z,3.80
2019-05-14T23:11:29.890Z,3.90
2019-05-14T23:14:00.365Z,3.98
2019-05-14T23:16:37.719Z,3.95
2019-05-14T23:19:03.170Z,4.03
2019-05-14T23:21:33.623Z,3.70
2019-05-14T23:24:04.202Z,3.17
2019-05-14T23:26:34.767Z,3.77
2019-05-14T23:29:05.483Z,3.90
2019-05-14T23:31:38.253Z,3.35
2019-05-14T23:34:08.473Z,4.20
2019-05-14T23:36:39.394Z,3.72
2019-05-14T23:39:10.031Z,3.70
2019-05-14T23:41:40.662Z,3.62
2019-05-14T23:44:12.261Z,3.92
2019-05-14T23:46:42.767Z,3.98
2019-05-14T23:49:13.393Z,3.85
2019-05-14T23:51:43.854Z,3.05
2019-05-14T23:54:14.447Z,3.60
2019-05-14T23:56:45.081Z,3.33
2019-05-14T23:59:15.629Z,3.45
